NCAR-RAP Real-Time Weather Data

Output produced by METARs form (27 May 2017  08:20 UTC)
found at http://weather.rap.ucar.edu/surface/
 
Conditions at: KPIE observed 27 May 2017  07:53 UTC
Temperature: 18.3°C (65°F)
Dewpoint: 16.1°C (61°F) [RH = 87%]
Pressure (altimeter): 30.04 inches Hg (1017.4 mb)
[Sea-level pressure: 1017.3 mb]
Winds: calm
Visibility: 10 or more miles (16+ km)
Ceiling: at least 12,000 feet AGL
Clouds: sky clear below 12,000 feet AGL
Present Weather:
SOME DATA ABOVE MAY BE INACCURATE!!!
"$" is an indication the sensor requires maintenance
KPIE 270753Z AUTO 00000KT 10SM CLR 18/16 A3004 RMK AO2 SLP173 T01830161 PNO $

Conditions at: KPIE observed 27 May 2017  06:53 UTC
Temperature: 18.3°C (65°F)
Dewpoint: 16.1°C (61°F) [RH = 87%]
Pressure (altimeter): 30.05 inches Hg (1017.7 mb)
[Sea-level pressure: 1017.7 mb]
Winds: from the SSW (200 degrees) at 3 MPH (3 knots; 1.6 m/s)
Visibility: 10 or more miles (16+ km)
Ceiling: at least 12,000 feet AGL
Clouds: sky clear below 12,000 feet AGL
Present Weather: automated observation with no human augmentation;
there may or may not be significant weather present at this time
KPIE 270653Z AUTO 20003KT 10SM CLR 18/16 A3005 RMK AO2 SLP177 T01830161

Conditions at: KPIE observed 27 May 2017  05:53 UTC
Temperature: 19.4°C (67°F)
Dewpoint: 16.7°C (62°F) [RH = 84%]
Pressure (altimeter): 30.07 inches Hg (1018.4 mb)
[Sea-level pressure: 1018.1 mb]
Winds: calm
Visibility: 10 or more miles (16+ km)
Ceiling: at least 12,000 feet AGL
Clouds: sky clear below 12,000 feet AGL
Present Weather: automated observation with no human augmentation;
there may or may not be significant weather present at this time
KPIE 270553Z AUTO 00000KT 10SM CLR 19/17 A3007 RMK AO2 SLP181 T01940167 10250 20189 58001

Conditions at: KPIE observed 27 May 2017  04:53 UTC
Temperature: 19.4°C (67°F)
Dewpoint: 16.7°C (62°F) [RH = 84%]
Pressure (altimeter): 30.07 inches Hg (1018.4 mb)
[Sea-level pressure: 1018.3 mb]
Winds: calm
Visibility: 10 or more miles (16+ km)
Ceiling: at least 12,000 feet AGL
Clouds: sky clear below 12,000 feet AGL
Present Weather: automated observation with no human augmentation;
there may or may not be significant weather present at this time
KPIE 270453Z AUTO 00000KT 10SM CLR 19/17 A3007 RMK AO2 SLP183 T01940167 403060178

Conditions at: KPIE observed 27 May 2017  03:53 UTC
Temperature: 20.0°C (68°F)
Dewpoint: 16.1°C (61°F) [RH = 78%]
Pressure (altimeter): 30.07 inches Hg (1018.4 mb)
[Sea-level pressure: 1018.3 mb]
Winds: calm
Visibility: 10 or more miles (16+ km)
Ceiling: at least 12,000 feet AGL
Clouds: sky clear below 12,000 feet AGL
Present Weather: automated observation with no human augmentation;
there may or may not be significant weather present at this time
KPIE 270353Z AUTO 00000KT 10SM CLR 20/16 A3007 RMK AO2 SLP183 T02000161

Conditions at: KPIE observed 27 May 2017  02:53 UTC
Temperature: 20.6°C (69°F)
Dewpoint: 16.1°C (61°F) [RH = 75%]
Pressure (altimeter): 30.07 inches Hg (1018.4 mb)
[Sea-level pressure: 1018.1 mb]
Winds: calm
Visibility: 10 or more miles (16+ km)
Ceiling: at least 12,000 feet AGL
Clouds: sky clear below 12,000 feet AGL
Present Weather: no significant weather observed at this time
KPIE 270253Z 00000KT 10SM CLR 21/16 A3007 RMK AO2 SLP181 T02060161 51009

Conditions at: KPIE observed 27 May 2017  01:53 UTC
Temperature: 22.2°C (72°F)
Dewpoint: 16.1°C (61°F) [RH = 68%]
Pressure (altimeter): 30.06 inches Hg (1018.0 mb)
[Sea-level pressure: 1018.0 mb]
Winds: calm
Visibility: 10 or more miles (16+ km)
Ceiling: at least 12,000 feet AGL
Clouds: sky clear below 12,000 feet AGL
Present Weather: no significant weather observed at this time
KPIE 270153Z 00000KT 10SM CLR 22/16 A3006 RMK AO2 SLP180 T02220161

Conditions at: KPIE observed 27 May 2017  00:53 UTC
Temperature: 23.3°C (74°F)
Dewpoint: 15.6°C (60°F) [RH = 62%]
Pressure (altimeter): 30.05 inches Hg (1017.7 mb)
[Sea-level pressure: 1017.6 mb]
Winds: from the WNW (290 degrees) at 5 MPH (4 knots; 2.1 m/s)
Visibility: 10 or more miles (16+ km)
Ceiling: at least 12,000 feet AGL
Clouds: sky clear below 12,000 feet AGL
Present Weather: no significant weather observed at this time
KPIE 270053Z 29004KT 10SM CLR 23/16 A3005 RMK AO2 SLP176 T02330156

Conditions at: KPIE observed 26 May 2017  23:53 UTC
Temperature: 25.0°C (77°F)
Dewpoint: 15.0°C (59°F) [RH = 54%]
Pressure (altimeter): 30.04 inches Hg (1017.4 mb)
[Sea-level pressure: 1017.2 mb]
Winds: from the W (280 degrees) at 6 MPH (5 knots; 2.6 m/s)
Visibility: 10 or more miles (16+ km)
Ceiling: at least 12,000 feet AGL
Clouds: sky clear below 12,000 feet AGL
Present Weather: no significant weather observed at this time
KPIE 262353Z 28005KT 10SM CLR 25/15 A3004 RMK AO2 SLP172 T02500150 10306 20250 53001

Conditions at: KPIE observed 26 May 2017  22:53 UTC
Temperature: 27.2°C (81°F)
Dewpoint: 15.0°C (59°F) [RH = 47%]
Pressure (altimeter): 30.04 inches Hg (1017.4 mb)
[Sea-level pressure: 1017.1 mb]
Winds: from the NW (310 degrees) at 8 MPH (7 knots; 3.6 m/s)
Visibility: 10 or more miles (16+ km)
Ceiling: at least 12,000 feet AGL
Clouds: sky clear below 12,000 feet AGL
Present Weather: no significant weather observed at this time
KPIE 262253Z 31007KT 10SM CLR 27/15 A3004 RMK AO2 SLP171 T02720150

Conditions at: KPIE observed 26 May 2017  21:53 UTC
Temperature: 28.3°C (83°F)
Dewpoint: 14.4°C (58°F) [RH = 43%]
Pressure (altimeter): 30.04 inches Hg (1017.4 mb)
[Sea-level pressure: 1017.1 mb]
Winds: from the NW (310 degrees) at 10 MPH (9 knots; 4.7 m/s)
Visibility: 10 or more miles (16+ km)
Ceiling: at least 12,000 feet AGL
Clouds: sky clear below 12,000 feet AGL
Present Weather: no significant weather observed at this time
KPIE 262153Z 31009KT 10SM CLR 28/14 A3004 RMK AO2 SLP171 T02830144

Conditions at: KPIE observed 26 May 2017  20:53 UTC
Temperature: 28.3°C (83°F)
Dewpoint: 14.4°C (58°F) [RH = 43%]
Pressure (altimeter): 30.04 inches Hg (1017.4 mb)
[Sea-level pressure: 1017.1 mb]
Winds: from the W (280 degrees) at 7 MPH (6 knots; 3.1 m/s)
Visibility: 10 or more miles (16+ km)
Ceiling: at least 12,000 feet AGL
Clouds: sky clear below 12,000 feet AGL
Present Weather: no significant weather observed at this time
KPIE 262053Z 28006KT 10SM CLR 28/14 A3004 RMK AO2 SLP171 T02830144 56007

Conditions at: KPIE observed 26 May 2017  19:53 UTC
Temperature: 28.9°C (84°F)
Dewpoint: 13.9°C (57°F) [RH = 40%]
Pressure (altimeter): 30.04 inches Hg (1017.4 mb)
[Sea-level pressure: 1017.2 mb]
Winds: from the W (280 degrees) at 3 MPH (3 knots; 1.6 m/s)
Visibility: 10 or more miles (16+ km)
Ceiling: at least 12,000 feet AGL
Clouds: sky clear below 12,000 feet AGL
Present Weather: no significant weather observed at this time
KPIE 261953Z 28003KT 10SM CLR 29/14 A3004 RMK AO2 SLP172 T02890139

Conditions at: KPIE observed 26 May 2017  18:53 UTC
Temperature: 30.0°C (86°F)
Dewpoint: 13.9°C (57°F) [RH = 37%]
Pressure (altimeter): 30.05 inches Hg (1017.7 mb)
[Sea-level pressure: 1017.7 mb]
Winds: from the WNW (290 degrees) at 7 MPH (6 knots; 3.1 m/s)
Visibility: 10 or more miles (16+ km)
Ceiling: at least 12,000 feet AGL
Clouds: sky clear below 12,000 feet AGL
Present Weather: automated observation with no human augmentation;
there may or may not be significant weather present at this time
KPIE 261853Z AUTO 29006KT 10SM CLR 30/14 A3005 RMK AO2 SLP177 T03000139

Conditions at: KPIE observed 26 May 2017  17:53 UTC
Temperature: 30.0°C (86°F)
Dewpoint: 14.4°C (58°F) [RH = 39%]
Pressure (altimeter): 30.06 inches Hg (1018.0 mb)
[Sea-level pressure: 1017.8 mb]
Winds: from the W (270 degrees) at 13 MPH (11 knots; 5.7 m/s)
Visibility: 10 or more miles (16+ km)
Ceiling: at least 12,000 feet AGL
Clouds: sky clear below 12,000 feet AGL
Present Weather: no significant weather observed at this time
KPIE 261753Z 27011KT 10SM CLR 30/14 A3006 RMK AO2 SLP178 T03000144 10306 20228 58006

Conditions at: KPIE observed 26 May 2017  16:53 UTC
Temperature: 28.9°C (84°F)
Dewpoint: 15.6°C (60°F) [RH = 45%]
Pressure (altimeter): 30.07 inches Hg (1018.4 mb)
[Sea-level pressure: 1018.1 mb]
Winds: from the N (360 degrees) at 6 MPH (5 knots; 2.6 m/s)
Visibility: 10 or more miles (16+ km)
Ceiling: at least 12,000 feet AGL
Clouds: sky clear below 12,000 feet AGL
Present Weather: no significant weather observed at this time
KPIE 261653Z 36005KT 10SM CLR 29/16 A3007 RMK AO2 SLP181 T02890156

Conditions at: KPIE observed 26 May 2017  15:53 UTC
Temperature: 27.8°C (82°F)
Dewpoint: 16.1°C (61°F) [RH = 49%]
Pressure (altimeter): 30.08 inches Hg (1018.7 mb)
[Sea-level pressure: 1018.4 mb]
Winds: variable direction winds at 5 MPH (4 knots; 2.1 m/s)
Visibility: 10 or more miles (16+ km)
Ceiling: at least 12,000 feet AGL
Clouds: sky clear below 12,000 feet AGL
Present Weather: no significant weather observed at this time
KPIE 261553Z VRB04KT 10SM CLR 28/16 A3008 RMK AO2 SLP184 T02780161

Conditions at: KPIE observed 26 May 2017  14:53 UTC
Temperature: 26.7°C (80°F)
Dewpoint: 15.6°C (60°F) [RH = 51%]
Pressure (altimeter): 30.08 inches Hg (1018.7 mb)
[Sea-level pressure: 1018.4 mb]
Winds: from the E (80 degrees) at 6 MPH (5 knots; 2.6 m/s)
Visibility: 10 or more miles (16+ km)
Ceiling: at least 12,000 feet AGL
Clouds: sky clear below 12,000 feet AGL
Present Weather: no significant weather observed at this time
KPIE 261453Z COR 08005KT 10SM CLR 27/16 A3008 RMK AO2 SLP184 T02670156 50011

Conditions at: KPIE observed 26 May 2017  13:53 UTC
Temperature: 25.6°C (78°F)
Dewpoint: 15.0°C (59°F) [RH = 52%]
Pressure (altimeter): 30.08 inches Hg (1018.7 mb)
[Sea-level pressure: 1018.6 mb]
Winds: from the ENE (60 degrees) at 5 MPH (4 knots; 2.1 m/s)
Visibility: 10 or more miles (16+ km)
Ceiling: at least 12,000 feet AGL
Clouds: sky clear below 12,000 feet AGL
Present Weather: no significant weather observed at this time
KPIE 261353Z 06004KT 10SM CLR 26/15 A3008 RMK AO2 SLP186 T02560150

Conditions at: KPIE observed 26 May 2017  12:53 UTC
Temperature: 25.0°C (77°F)
Dewpoint: 16.7°C (62°F) [RH = 60%]
Pressure (altimeter): 30.07 inches Hg (1018.4 mb)
[Sea-level pressure: 1018.3 mb]
Winds: variable direction winds at 5 MPH (4 knots; 2.1 m/s)
Visibility: 10 or more miles (16+ km)
Ceiling: at least 12,000 feet AGL
Clouds: sky clear below 12,000 feet AGL
Present Weather: no significant weather observed at this time
KPIE 261253Z VRB04KT 10SM CLR 25/17 A3007 RMK AO2 SLP183 T02500167

Conditions at: KPIE observed 26 May 2017  11:53 UTC
Temperature: 22.8°C (73°F)
Dewpoint: 17.8°C (64°F) [RH = 73%]
Pressure (altimeter): 30.05 inches Hg (1017.7 mb)
[Sea-level pressure: 1017.4 mb]
Winds: from the NW (320 degrees) at 5 MPH (4 knots; 2.1 m/s)
Visibility: 10 or more miles (16+ km)
Ceiling: at least 12,000 feet AGL
Clouds: sky clear below 12,000 feet AGL
Present Weather: no significant weather observed at this time
KPIE 261153Z 32004KT 10SM CLR 23/18 A3005 RMK AO2 SLP174 T02280178 10228 20178 51016

Conditions at: KPIE observed 26 May 2017  10:53 UTC
Temperature: 18.9°C (66°F)
Dewpoint: 16.1°C (61°F) [RH = 84%]
Pressure (altimeter): 30.03 inches Hg (1017.0 mb)
[Sea-level pressure: 1016.8 mb]
Winds: from the NW (320 degrees) at 6 MPH (5 knots; 2.6 m/s)
Visibility: 10 or more miles (16+ km)
Ceiling: at least 12,000 feet AGL
Clouds: sky clear below 12,000 feet AGL
Present Weather: no significant weather observed at this time
KPIE 261053Z 32005KT 10SM CLR 19/16 A3003 RMK AO2 SLP168 T01890161

Conditions at: KPIE observed 26 May 2017  09:53 UTC
Temperature: 18.3°C (65°F)
Dewpoint: 15.6°C (60°F) [RH = 84%]
Pressure (altimeter): 30.02 inches Hg (1016.7 mb)
[Sea-level pressure: 1016.4 mb]
Winds: calm
Visibility: 10 or more miles (16+ km)
Ceiling: at least 12,000 feet AGL
Clouds: sky clear below 12,000 feet AGL
Present Weather: no significant weather observed at this time
KPIE 260953Z 00000KT 10SM CLR 18/16 A3002 RMK AO2 SLP164 T01830156

Conditions at: KPIE observed 26 May 2017  08:53 UTC
Temperature: 18.3°C (65°F)
Dewpoint: 16.1°C (61°F) [RH = 87%]
Pressure (altimeter): 30.00 inches Hg (1016.0 mb)
[Sea-level pressure: 1015.8 mb]
Winds: calm
Visibility: 10 or more miles (16+ km)
Ceiling: at least 12,000 feet AGL
Clouds: sky clear below 12,000 feet AGL
Present Weather: automated observation with no human augmentation;
there may or may not be significant weather present at this time
KPIE 260853Z AUTO 00000KT 10SM CLR 18/16 A3000 RMK AO2 SLP158 T01830161 53005